createdAt,value
2019-03-21T00:02:49.866Z,31.09
2019-03-21T00:07:57.557Z,31.52
2019-03-21T00:13:05.309Z,31.73
2019-03-21T00:18:13.021Z,31.11
2019-03-21T00:23:20.721Z,31.41
2019-03-21T00:28:28.405Z,31.71
2019-03-21T00:33:36.298Z,33.07
2019-03-21T00:38:44.080Z,31.90
2019-03-21T00:43:51.769Z,31.94
2019-03-21T00:48:59.373Z,30.94
2019-03-21T00:54:07.029Z,31.60
2019-03-21T00:59:14.681Z,30.25
2019-03-21T01:04:23.365Z,29.86
2019-03-21T01:09:31.071Z,28.93
2019-03-21T01:14:38.729Z,28.44
2019-03-21T01:19:46.479Z,27.54
2019-03-21T01:24:54.308Z,26.51
2019-03-21T01:30:01.920Z,23.98
2019-03-21T01:35:09.611Z,24.14
2019-03-21T01:40:17.261Z,25.28
2019-03-21T01:45:25.777Z,26.49
2019-03-21T01:50:33.413Z,27.26
2019-03-21T01:55:41.009Z,27.65
2019-03-21T02:00:48.607Z,28.35
2019-03-21T02:05:56.216Z,28.95
2019-03-21T02:11:03.801Z,28.04
2019-03-21T02:16:11.529Z,28.27
2019-03-21T02:21:19.541Z,28.44
2019-03-21T02:26:27.268Z,29.22
2019-03-21T02:31:34.921Z,30.43
2019-03-21T02:36:42.721Z,32.23
2019-03-21T02:41:50.514Z,31.98
2019-03-21T02:46:58.290Z,29.75
2019-03-21T02:52:06.018Z,31.08
2019-03-21T02:57:13.756Z,31.41
2019-03-21T03:02:21.437Z,31.74
2019-03-21T03:07:29.228Z,30.77
2019-03-21T03:12:36.873Z,29.40
2019-03-21T03:17:44.646Z,29.14
2019-03-21T03:22:53.139Z,27.02
2019-03-21T03:28:01.658Z,25.64
2019-03-21T03:33:09.398Z,25.37
2019-03-21T03:38:17.235Z,25.02
2019-03-21T03:43:25.147Z,22.50
2019-03-21T03:48:32.874Z,21.20
2019-03-21T03:53:42.450Z,19.25
2019-03-21T03:58:47.913Z,18.34
2019-03-21T04:03:55.680Z,18.32
2019-03-21T04:09:03.372Z,18.20
2019-03-21T04:14:10.987Z,17.50
2019-03-21T04:19:18.709Z,17.58
2019-03-21T04:24:26.330Z,17.83
2019-03-21T04:29:34.077Z,18.07
2019-03-21T04:34:41.745Z,18.33
2019-03-21T04:39:49.349Z,17.68
2019-03-21T04:44:57.059Z,17.49
2019-03-21T04:50:04.665Z,17.14
2019-03-21T04:55:12.327Z,17.49
2019-03-21T05:00:20.025Z,17.03
2019-03-21T05:05:27.657Z,16.57
2019-03-21T05:10:35.511Z,17.01
2019-03-21T05:15:43.102Z,15.81
2019-03-21T05:20:50.805Z,16.20
2019-03-21T05:25:58.433Z,16.96
2019-03-21T05:31:06.102Z,17.09
2019-03-21T05:36:13.714Z,17.69
2019-03-21T05:41:21.450Z,17.19
2019-03-21T05:46:29.148Z,18.18
2019-03-21T05:51:37.085Z,17.46
2019-03-21T05:56:44.699Z,17.81
2019-03-21T06:01:52.455Z,17.15
2019-03-21T06:07:00.053Z,17.44
2019-03-21T06:12:07.685Z,17.45
2019-03-21T06:17:15.355Z,17.34
2019-03-21T06:22:23.069Z,16.91
2019-03-21T06:27:30.646Z,16.49
2019-03-21T06:32:38.425Z,17.18
2019-03-21T06:37:46.053Z,16.73
2019-03-21T06:42:53.775Z,17.60
2019-03-21T06:48:01.440Z,17.57
2019-03-21T06:53:09.153Z,18.57
2019-03-21T06:58:16.870Z,18.06
2019-03-21T07:03:24.572Z,17.74
2019-03-21T07:08:32.257Z,17.90
2019-03-21T07:13:39.942Z,17.94
2019-03-21T07:18:47.584Z,18.68
2019-03-21T07:23:55.334Z,18.84
2019-03-21T07:29:02.951Z,19.51
2019-03-21T07:34:10.649Z,18.24
2019-03-21T07:39:18.322Z,18.72
2019-03-21T07:44:26.083Z,18.05
2019-03-21T07:49:33.761Z,16.48
2019-03-21T07:54:41.402Z,16.03
2019-03-21T07:59:49.137Z,15.26
2019-03-21T08:04:56.762Z,14.52
2019-03-21T08:10:04.496Z,14.77
2019-03-21T08:15:11.926Z,15.10
2019-03-21T08:20:19.650Z,13.60
2019-03-21T08:25:27.340Z,13.53
2019-03-21T08:30:34.992Z,13.94
2019-03-21T08:35:42.625Z,13.15
2019-03-21T08:40:50.214Z,12.85
2019-03-21T08:45:57.777Z,12.70
2019-03-21T08:51:08.594Z,13.06
2019-03-21T08:56:12.702Z,13.48
2019-03-21T09:01:20.348Z,14.37
2019-03-21T09:06:28.045Z,13.70
2019-03-21T09:11:35.674Z,14.38
2019-03-21T09:16:43.551Z,14.65
2019-03-21T09:21:51.229Z,14.67
2019-03-21T09:26:58.869Z,14.59
2019-03-21T09:32:06.660Z,13.76
2019-03-21T09:37:14.445Z,14.74
2019-03-21T09:42:22.223Z,14.13
2019-03-21T09:47:29.819Z,14.13
2019-03-21T09:52:37.429Z,13.69
2019-03-21T09:57:45.189Z,13.89
2019-03-21T10:02:52.846Z,14.05
2019-03-21T10:08:00.525Z,14.21
2019-03-21T10:13:08.155Z,14.08
2019-03-21T10:18:15.866Z,14.40
2019-03-21T10:23:23.589Z,14.57
2019-03-21T10:28:31.348Z,15.29
2019-03-21T10:33:39.013Z,15.60
2019-03-21T10:38:46.916Z,16.10
2019-03-21T10:43:54.485Z,15.97
2019-03-21T10:49:02.082Z,24.95
2019-03-21T10:54:09.695Z,17.24
2019-03-21T10:59:17.318Z,17.65
2019-03-21T11:04:24.957Z,18.26
2019-03-21T11:09:32.797Z,17.65
2019-03-21T11:14:40.426Z,17.18
2019-03-21T11:19:48.340Z,17.59
2019-03-21T11:24:55.957Z,17.35
2019-03-21T11:30:03.551Z,18.53
2019-03-21T11:35:11.237Z,18.20
2019-03-21T11:40:18.962Z,17.62
2019-03-21T11:45:26.541Z,17.54
2019-03-21T11:50:34.133Z,17.51
2019-03-21T11:55:41.888Z,18.02
2019-03-21T12:00:49.602Z,18.52
2019-03-21T12:05:57.357Z,18.24
2019-03-21T12:11:05.101Z,19.37
2019-03-21T12:16:12.666Z,20.21
2019-03-21T12:21:20.402Z,20.38
2019-03-21T12:26:28.795Z,20.66
2019-03-21T12:31:36.541Z,20.11
2019-03-21T12:36:44.151Z,20.49
2019-03-21T12:41:51.964Z,20.47
2019-03-21T12:46:59.631Z,20.47
2019-03-21T12:52:07.309Z,20.40
2019-03-21T12:57:14.890Z,20.48
2019-03-21T13:02:32.097Z,30.11
2019-03-21T13:07:29.901Z,21.01
2019-03-21T13:12:37.650Z,21.85
2019-03-21T13:17:45.361Z,31.07
2019-03-21T13:22:53.608Z,20.05
2019-03-21T13:28:00.321Z,20.15
2019-03-21T13:33:08.076Z,20.59
2019-03-21T13:38:15.818Z,21.27
2019-03-21T13:43:23.690Z,20.76
2019-03-21T13:48:31.318Z,21.38
2019-03-21T13:53:40.284Z,32.57
2019-03-21T13:58:48.141Z,22.50
2019-03-21T14:03:56.253Z,21.95
2019-03-21T14:09:03.846Z,21.53
2019-03-21T14:14:11.481Z,22.24
2019-03-21T14:19:19.108Z,22.08
2019-03-21T14:24:26.897Z,22.01
2019-03-21T14:29:34.567Z,22.00
2019-03-21T14:34:42.329Z,22.34
2019-03-21T14:39:49.977Z,21.52
2019-03-21T14:44:57.610Z,21.49
2019-03-21T14:50:05.382Z,21.96
2019-03-21T14:55:12.953Z,22.58
2019-03-21T15:00:20.746Z,22.18
2019-03-21T15:05:28.465Z,22.11
2019-03-21T15:10:36.388Z,21.25
2019-03-21T15:15:44.937Z,21.83
2019-03-21T15:20:52.587Z,21.50
2019-03-21T15:26:00.178Z,21.47
2019-03-21T15:31:08.048Z,19.94
2019-03-21T15:36:15.753Z,19.88
2019-03-21T15:41:23.522Z,19.31
2019-03-21T15:46:31.221Z,19.53
2019-03-21T15:51:39.039Z,19.43
2019-03-21T15:56:46.718Z,19.89
2019-03-21T16:01:54.537Z,20.54
2019-03-21T16:07:02.337Z,20.71
2019-03-21T16:12:10.103Z,19.97
2019-03-21T16:17:18.177Z,20.30
2019-03-21T16:22:25.817Z,20.00
2019-03-21T16:27:33.636Z,21.31
2019-03-21T16:32:41.472Z,21.18
2019-03-21T16:37:49.266Z,19.95
2019-03-21T16:42:56.968Z,19.36
2019-03-21T16:48:05.326Z,18.91
2019-03-21T16:53:13.038Z,19.04
2019-03-21T16:58:20.898Z,19.01
2019-03-21T17:03:28.746Z,19.36
2019-03-21T17:08:36.372Z,19.15
2019-03-21T17:13:44.201Z,19.47
2019-03-21T17:18:51.992Z,18.90
2019-03-21T17:23:59.868Z,20.31
2019-03-21T17:29:07.557Z,19.97
2019-03-21T17:34:15.350Z,19.15
2019-03-21T17:39:23.035Z,19.71
2019-03-21T17:44:30.877Z,19.04
2019-03-21T17:49:38.496Z,20.08
2019-03-21T17:54:46.305Z,19.28
2019-03-21T17:59:54.038Z,19.94
2019-03-21T18:05:01.754Z,19.68
2019-03-21T18:10:09.393Z,18.59
2019-03-21T18:15:17.146Z,19.76
2019-03-21T18:20:24.790Z,18.76
2019-03-21T18:25:32.571Z,18.49
2019-03-21T18:30:40.206Z,18.78
2019-03-21T18:35:47.961Z,18.52
2019-03-21T18:40:55.670Z,18.45
2019-03-21T18:46:03.311Z,18.96
2019-03-21T18:51:10.935Z,19.51
2019-03-21T18:56:18.745Z,19.22
2019-03-21T19:01:26.366Z,19.38
2019-03-21T19:06:34.142Z,19.69
2019-03-21T19:11:41.783Z,19.97
2019-03-21T19:16:49.571Z,19.19
2019-03-21T19:21:57.293Z,19.02
2019-03-21T19:27:04.982Z,20.41
2019-03-21T19:32:12.710Z,19.18
2019-03-21T19:37:20.465Z,18.82
2019-03-21T19:42:28.147Z,28.13
2019-03-21T19:47:35.885Z,19.49
2019-03-21T19:52:43.625Z,19.02
2019-03-21T19:57:51.392Z,19.16
2019-03-21T20:02:59.065Z,18.91
2019-03-21T20:08:06.834Z,19.80
2019-03-21T20:13:14.453Z,19.37
2019-03-21T20:18:22.308Z,19.19
2019-03-21T20:23:29.976Z,19.59
2019-03-21T20:28:37.667Z,20.41
2019-03-21T20:33:45.304Z,20.48
2019-03-21T20:38:52.993Z,20.05
2019-03-21T20:44:00.778Z,19.43
2019-03-21T20:49:08.536Z,20.03
2019-03-21T20:54:16.227Z,19.94
2019-03-21T20:59:24.733Z,20.12
2019-03-21T21:04:32.429Z,20.19
2019-03-21T21:09:40.151Z,20.55
2019-03-21T21:14:48.172Z,20.08
2019-03-21T21:19:55.906Z,21.28
2019-03-21T21:25:03.672Z,22.29
2019-03-21T21:30:11.408Z,22.51
2019-03-21T21:35:18.989Z,22.13
2019-03-21T21:40:26.805Z,21.94
2019-03-21T21:45:34.640Z,21.21
2019-03-21T21:50:42.327Z,20.90
2019-03-21T21:55:50.254Z,20.89
2019-03-21T22:00:58.130Z,20.90
2019-03-21T22:06:05.769Z,20.73
2019-03-21T22:11:13.349Z,20.53
2019-03-21T22:16:21.259Z,20.93
2019-03-21T22:21:29.853Z,20.79
2019-03-21T22:26:37.574Z,20.75
2019-03-21T22:31:45.245Z,21.26
2019-03-21T22:36:52.918Z,21.50
2019-03-21T22:42:00.517Z,21.76
2019-03-21T22:47:08.245Z,21.92
2019-03-21T22:52:15.845Z,21.21
2019-03-21T22:57:23.689Z,22.60
2019-03-21T23:02:31.345Z,32.87
2019-03-21T23:07:39.089Z,22.65
2019-03-21T23:12:46.723Z,23.48
2019-03-21T23:17:54.470Z,23.06
2019-03-21T23:23:02.309Z,22.97
2019-03-21T23:28:10.028Z,23.38
2019-03-21T23:33:17.709Z,22.43
2019-03-21T23:38:25.418Z,23.03
2019-03-21T23:43:33.135Z,23.20
2019-03-21T23:48:40.921Z,22.98
2019-03-21T23:53:48.702Z,22.25
2019-03-21T23:58:56.562Z,22.61
